Terminal Aerodrome Forecast
Issued by NWS

Home | Current Version | Previous Version | Text Only | Print | Product List | Glossary On
Versions: 1 2 3 4 5 6 7 8 9 10 11 12
787
FTUS41 KLWX 241129
TAFMTN
TAF
KMTN 241129Z 2412/2512 04004KT P6SM FEW250
     FM241600 10004KT P6SM SCT050
     FM242000 16005KT P6SM FEW050
     FM251100 22004KT P6SM SCT140=

USA.gov is the U.S. government's official web portal to all federal, state and local government web resources and services.